Etusivu
METAR-TAF:

METAR-TAF

Lentoasemat :

Stord, Norja

Leveyspiiri: 59-48N, Pituuspiiri: 005-21E, korkeus merenpinnasta: 49 m

Tämänhetkinen sää

Tämä raportti tehtiin 4 tuntia ja 24 minuuttia sitten, kello 14.20 UTC
Tuuli 10 kn kaakosta
Lämpötila 15°C
Kosteus 72%
Ilmanpaine 1021 hPa
Näkyvyys 10 km tai enemmän
Hajanaisia pilviä 3000 ft:n korkeudessa
Hajonneita pilviä 6000 ft:n korkeudessa

METAR: ENSO 221420Z 13010KT 9999 SCT030 BKN060 15/10 Q1021

Aika: 20:44 (18:44 UTC)

Sääennuste

Tämä raportti tehtiin 7 tuntia ja 44 minuuttia sitten, kello 11.00 UTC
Ennuste voimassa 22. päivästä klo 12 UTC - 22. päivään klo 15 UTC
Tuuli 12 kn kaakosta
Näkyvyys 10 km tai enemmän
Hajanaisia pilviä 3500 ft:n korkeudessa
Hajonneita pilviä 5000 ft:n korkeudessa
heikkoa sadetta

TAF: ENSO 221100Z 2212/2215 13012KT 9999 -RA SCT035 BKN050

Säähavainnot ja -ennusteet yli 4000 lentoasemalta (METAR- ja TAF-raportit).

Käytössä olevat sääasemat on merkitty karttaan keltaisilla ja punaisilla pisteillä.

Aseta hiiri pisteen päälle nähdäksesi sääaseman nimen.

Klikkaa sitten nähdäksesi säähavainnot ja -ennusteet.

Kartan vaihtaminen: klikkaa mustalla rastilla varustettuja vihreitä pisteitä, niin voit zoomata sisään; viivalla varustettua vihreää pistettä, niin voit zoomata ulos tai vihreitä nuolia, niin pääset viereisille kartoille.


METAR-TAF: